Syosyun — JD2406 — position and weather

sailwx.info

Track history (hours):
 
Tides and Currents Weather Stations Pressure Air Temp Water Temp Dewpoint Dewpoint Depression Visibility Wind Speed Wind Dir Waves Ship Positions

Syosyun

Last reported at 2015-May-17 06:23 UTC. Time now 2015-May-24 07:19 UTC.
Position N 35°59' E 140°47'.

Length 74 m; draft 3.8 m.

Type: Cargo ship. MMSI: 431000201.

Date/timePositionNaut miles runAvg speedWind from/ knotsBaromVisibWave heightAir tempDewpointWater temp
2015-May-17 06:23N 35°59' E 140°47'20 9.8
2015-May-17 04:21N 35°39' E 140°53'910.1
2015-May-17 03:27N 35°32' E 140°45'1011.0
2015-May-17 02:31N 35°24' E 140°37'1111.1
2015-May-17 01:33N 35°15' E 140°30'2210.9
2015-May-16 23:33N 34°60' E 140°11'1410.7
2015-May-16 22:17N 34°52' E 139°58'  
2015-May-14 03:32N 35°03' E 139°32'9 9.1
2015-May-14 02:33N 35°07' E 139°41'9 9.1
2015-May-14 01:33N 35°15' E 139°46'7 6.4
2015-May-14 00:31N 35°21' E 139°41'0 0.0
2015-May-13 23:31N 35°21' E 139°41'0 0.1
2015-May-13 22:31N 35°21' E 139°41'0 0.0
2015-May-13 21:31N 35°21' E 139°41'0 0.0
2015-May-13 20:22N 35°21' E 139°41'0 0.0
2015-May-13 19:31N 35°21' E 139°41'0 0.0
2015-May-13 18:31N 35°21' E 139°41'0 0.1
2015-May-13 17:31N 35°21' E 139°41'0 0.0
2015-May-13 16:31N 35°21' E 139°41'0 0.0
2015-May-13 15:31N 35°21' E 139°41'0 0.0
2015-May-13 14:31N 35°21' E 139°41'0 0.0
2015-May-13 13:31N 35°21' E 139°41'0 0.0
2015-May-13 12:31N 35°21' E 139°41'0 0.0
2015-May-13 11:28N 35°21' E 139°41'0 0.0
2015-May-13 10:25N 35°21' E 139°41'0 0.0
2015-May-13 09:31N 35°21' E 139°41'0 0.0
2015-May-13 08:28N 35°21' E 139°41'0 0.0
2015-May-13 07:30N 35°21' E 139°41'0 0.0
2015-May-13 06:34N 35°21' E 139°41'0 0.0
2015-May-13 05:30N 35°21' E 139°41'0 0.0
2015-May-13 04:33N 35°21' E 139°41'0 0.0
2015-May-13 03:28N 35°21' E 139°41'0 0.0
2015-May-13 02:34N 35°21' E 139°41'0 0.0
2015-May-13 01:30N 35°21' E 139°41'0 0.0
2015-May-13 00:33N 35°21' E 139°41'0 0.0
2015-May-12 23:34N 35°21' E 139°41'0 0.0
2015-May-12 22:33N 35°21' E 139°41'0 0.0
2015-May-12 21:32N 35°21' E 139°41'0 0.0
2015-May-12 20:33N 35°21' E 139°41'0 0.0
2015-May-12 19:33N 35°21' E 139°41'0 0.0
2015-May-12 18:31N 35°21' E 139°41'0 0.0
2015-May-12 17:33N 35°21' E 139°41'0 0.0
2015-May-12 16:34N 35°21' E 139°41'0 0.0
2015-May-12 15:33N 35°21' E 139°41'0 0.0
2015-May-12 14:32N 35°21' E 139°41'0 0.2
2015-May-12 13:32N 35°21' E 139°41'0 0.1
2015-May-12 12:32N 35°21' E 139°41'0 0.0
2015-May-12 11:33N 35°21' E 139°41'0 0.1
2015-May-12 10:34N 35°21' E 139°41'0 0.0
2015-May-12 09:33N 35°21' E 139°41'0 0.0
2015-May-12 08:33N 35°21' E 139°41'0 0.0
2015-May-12 07:34N 35°21' E 139°41'0 0.0
2015-May-12 06:30N 35°21' E 139°41'5 4.8
2015-May-12 05:33N 35°25' E 139°41'0 0.0
2015-May-12 04:33N 35°25' E 139°41'0 0.0
2015-May-12 03:33N 35°25' E 139°41'0 0.0
2015-May-12 02:33N 35°25' E 139°41'0 0.0
2015-May-12 01:33N 35°25' E 139°41'0 0.0
2015-May-12 00:33N 35°25' E 139°41'0 0.0
2015-May-11 23:33N 35°25' E 139°41'0 0.0
2015-May-11 22:33N 35°25' E 139°41'0 0.0
2015-May-11 21:33N 35°25' E 139°41'0 0.0
2015-May-11 20:33N 35°25' E 139°41'0 0.0
2015-May-11 19:33N 35°25' E 139°41'0 0.0
2015-May-11 18:33N 35°25' E 139°41'0 0.0
2015-May-11 17:33N 35°25' E 139°41'0 0.0
2015-May-11 16:33N 35°25' E 139°41'0 0.0
2015-May-11 15:33N 35°25' E 139°41'0 0.0
2015-May-11 14:33N 35°25' E 139°41'0 0.0
2015-May-11 13:33N 35°25' E 139°41'0 0.0
2015-May-11 12:33N 35°25' E 139°41'0 0.0
2015-May-11 11:33N 35°25' E 139°41'0 0.0
2015-May-11 10:33N 35°25' E 139°41'0 0.0
2015-May-11 09:33N 35°25' E 139°41'0 0.0
2015-May-11 08:33N 35°25' E 139°41'0 0.0
2015-May-11 07:33N 35°25' E 139°41'0 0.0
2015-May-11 06:33N 35°25' E 139°41'0 0.0
2015-May-11 05:33N 35°25' E 139°41'0 0.0
2015-May-11 04:33N 35°25' E 139°41'1010.2
2015-May-11 03:33N 35°31' E 139°51'1211.5
2015-May-11 02:33N 35°33' E 140°05'1 1.2
2015-May-11 01:21N 35°33' E 140°07'0 0.0
2015-May-11 00:33N 35°33' E 140°07'0 0.0
2015-May-10 23:33N 35°33' E 140°07'6 6.3
2015-May-10 22:33N 35°36' E 139°60'2 1.5
2015-May-10 21:14N 35°37' E 139°58'0 0.0
2015-May-10 20:20N 35°37' E 139°58'0 0.0
2015-May-10 19:26N 35°37' E 139°58'0 0.0
2015-May-10 18:20N 35°37' E 139°58'0 0.0
2015-May-10 17:32N 35°37' E 139°58'0 0.0
2015-May-10 16:32N 35°37' E 139°58'0 0.1
2015-May-10 15:32N 35°37' E 139°58'0 0.0
2015-May-10 14:14N 35°37' E 139°58'0 0.1
2015-May-10 13:32N 35°37' E 139°58'0 0.0
2015-May-10 12:32N 35°37' E 139°58'0 0.0
2015-May-10 11:32N 35°37' E 139°58'0 0.0
2015-May-10 10:32N 35°37' E 139°58'8 8.6
2015-May-10 09:33N 35°30' E 139°52'1111.2
2015-May-10 08:33N 35°21' E 139°45'1110.7
2015-May-10 07:33N 35°10' E 139°47'1111.0
2015-May-10 06:33N 35°01' E 139°39'4 0.1
2015-May-08 06:33N 35°04' E 139°35'1110.6
2015-May-08 05:34N 35°11' E 139°45'10 9.7
2015-May-08 04:33N 35°21' E 139°42'1010.4
2015-May-08 03:33N 35°29' E 139°50'1111.5
2015-May-08 02:34N 35°34' E 140°03'3 3.0
2015-May-08 01:28N 35°33' E 140°07'0 0.0
2015-May-08 00:31N 35°33' E 140°07'0 0.0
2015-May-07 23:25N 35°33' E 140°07'0 0.0
2015-May-07 22:31N 35°33' E 140°07'0 0.0
2015-May-07 21:31N 35°33' E 140°07'0 0.0
2015-May-07 20:28N 35°33' E 140°07'0 0.0
2015-May-07 19:31N 35°33' E 140°07'0 0.0
2015-May-07 18:31N 35°33' E 140°07'0 0.0
2015-May-07 17:28N 35°33' E 140°07'0 0.0
2015-May-07 16:25N 35°33' E 140°07'0 0.0
2015-May-07 15:31N 35°33' E 140°07'0 0.0
2015-May-07 14:31N 35°33' E 140°07'0 0.0
2015-May-07 13:31N 35°33' E 140°07'0 0.0
2015-May-07 12:13N 35°33' E 140°07'0 0.0
2015-May-07 11:31N 35°33' E 140°07'3 3.0
2015-May-07 10:33N 35°33' E 140°03'1111.4
2015-May-07 09:34N 35°28' E 139°51'9 8.7
2015-May-07 08:32N 35°25' E 139°41'0 0.0
2015-May-07 07:32N 35°25' E 139°41'0 0.0
2015-May-07 06:32N 35°25' E 139°41'  
Track history (hours):
 
Tides and Currents Weather Stations Pressure Air Temp Water Temp Dewpoint Dewpoint Depression Visibility Wind Speed Wind Dir Waves Ship Positions

Syosyun

Last reported at 2015-May-17 06:23 UTC. Time now 2015-May-24 07:19 UTC.
Position N 35°59' E 140°47'.

Length 74 m; draft 3.8 m.

Type: Cargo ship. MMSI: 431000201.

Date/timePositionNaut miles runAvg speedWind from/ knotsBaromVisibWave heightAir tempDewpointWater temp
2015-May-17 06:23N 35°59' E 140°47'20 9.8
2015-May-17 04:21N 35°39' E 140°53'910.1
2015-May-17 03:27N 35°32' E 140°45'1011.0
2015-May-17 02:31N 35°24' E 140°37'1111.1
2015-May-17 01:33N 35°15' E 140°30'2210.9
2015-May-16 23:33N 34°60' E 140°11'1410.7
2015-May-16 22:17N 34°52' E 139°58'  
2015-May-14 03:32N 35°03' E 139°32'9 9.1
2015-May-14 02:33N 35°07' E 139°41'9 9.1
2015-May-14 01:33N 35°15' E 139°46'7 6.4
2015-May-14 00:31N 35°21' E 139°41'0 0.0
2015-May-13 23:31N 35°21' E 139°41'0 0.1
2015-May-13 22:31N 35°21' E 139°41'0 0.0
2015-May-13 21:31N 35°21' E 139°41'0 0.0
2015-May-13 20:22N 35°21' E 139°41'0 0.0
2015-May-13 19:31N 35°21' E 139°41'0 0.0
2015-May-13 18:31N 35°21' E 139°41'0 0.1
2015-May-13 17:31N 35°21' E 139°41'0 0.0
2015-May-13 16:31N 35°21' E 139°41'0 0.0
2015-May-13 15:31N 35°21' E 139°41'0 0.0
2015-May-13 14:31N 35°21' E 139°41'0 0.0
2015-May-13 13:31N 35°21' E 139°41'0 0.0
2015-May-13 12:31N 35°21' E 139°41'0 0.0
2015-May-13 11:28N 35°21' E 139°41'0 0.0
2015-May-13 10:25N 35°21' E 139°41'0 0.0
2015-May-13 09:31N 35°21' E 139°41'0 0.0
2015-May-13 08:28N 35°21' E 139°41'0 0.0
2015-May-13 07:30N 35°21' E 139°41'0 0.0
2015-May-13 06:34N 35°21' E 139°41'0 0.0
2015-May-13 05:30N 35°21' E 139°41'0 0.0
2015-May-13 04:33N 35°21' E 139°41'0 0.0
2015-May-13 03:28N 35°21' E 139°41'0 0.0
2015-May-13 02:34N 35°21' E 139°41'0 0.0
2015-May-13 01:30N 35°21' E 139°41'0 0.0
2015-May-13 00:33N 35°21' E 139°41'0 0.0
2015-May-12 23:34N 35°21' E 139°41'0 0.0
2015-May-12 22:33N 35°21' E 139°41'0 0.0
2015-May-12 21:32N 35°21' E 139°41'0 0.0
2015-May-12 20:33N 35°21' E 139°41'0 0.0
2015-May-12 19:33N 35°21' E 139°41'0 0.0
2015-May-12 18:31N 35°21' E 139°41'0 0.0
2015-May-12 17:33N 35°21' E 139°41'0 0.0
2015-May-12 16:34N 35°21' E 139°41'0 0.0
2015-May-12 15:33N 35°21' E 139°41'0 0.0
2015-May-12 14:32N 35°21' E 139°41'0 0.2
2015-May-12 13:32N 35°21' E 139°41'0 0.1
2015-May-12 12:32N 35°21' E 139°41'0 0.0
2015-May-12 11:33N 35°21' E 139°41'0 0.1
2015-May-12 10:34N 35°21' E 139°41'0 0.0
2015-May-12 09:33N 35°21' E 139°41'0 0.0
2015-May-12 08:33N 35°21' E 139°41'0 0.0
2015-May-12 07:34N 35°21' E 139°41'0 0.0
2015-May-12 06:30N 35°21' E 139°41'5 4.8
2015-May-12 05:33N 35°25' E 139°41'0 0.0
2015-May-12 04:33N 35°25' E 139°41'0 0.0
2015-May-12 03:33N 35°25' E 139°41'0 0.0
2015-May-12 02:33N 35°25' E 139°41'0 0.0
2015-May-12 01:33N 35°25' E 139°41'0 0.0
2015-May-12 00:33N 35°25' E 139°41'0 0.0
2015-May-11 23:33N 35°25' E 139°41'0 0.0
2015-May-11 22:33N 35°25' E 139°41'0 0.0
2015-May-11 21:33N 35°25' E 139°41'0 0.0
2015-May-11 20:33N 35°25' E 139°41'0 0.0
2015-May-11 19:33N 35°25' E 139°41'0 0.0
2015-May-11 18:33N 35°25' E 139°41'0 0.0
2015-May-11 17:33N 35°25' E 139°41'0 0.0
2015-May-11 16:33N 35°25' E 139°41'0 0.0
2015-May-11 15:33N 35°25' E 139°41'0 0.0
2015-May-11 14:33N 35°25' E 139°41'0 0.0
2015-May-11 13:33N 35°25' E 139°41'0 0.0
2015-May-11 12:33N 35°25' E 139°41'0 0.0
2015-May-11 11:33N 35°25' E 139°41'0 0.0
2015-May-11 10:33N 35°25' E 139°41'0 0.0
2015-May-11 09:33N 35°25' E 139°41'0 0.0
2015-May-11 08:33N 35°25' E 139°41'0 0.0
2015-May-11 07:33N 35°25' E 139°41'0 0.0
2015-May-11 06:33N 35°25' E 139°41'0 0.0
2015-May-11 05:33N 35°25' E 139°41'0 0.0
2015-May-11 04:33N 35°25' E 139°41'1010.2
2015-May-11 03:33N 35°31' E 139°51'1211.5
2015-May-11 02:33N 35°33' E 140°05'1 1.2
2015-May-11 01:21N 35°33' E 140°07'0 0.0
2015-May-11 00:33N 35°33' E 140°07'0 0.0
2015-May-10 23:33N 35°33' E 140°07'6 6.3
2015-May-10 22:33N 35°36' E 139°60'2 1.5
2015-May-10 21:14N 35°37' E 139°58'0 0.0
2015-May-10 20:20N 35°37' E 139°58'0 0.0
2015-May-10 19:26N 35°37' E 139°58'0 0.0
2015-May-10 18:20N 35°37' E 139°58'0 0.0
2015-May-10 17:32N 35°37' E 139°58'0 0.0
2015-May-10 16:32N 35°37' E 139°58'0 0.1
2015-May-10 15:32N 35°37' E 139°58'0 0.0
2015-May-10 14:14N 35°37' E 139°58'0 0.1
2015-May-10 13:32N 35°37' E 139°58'0 0.0
2015-May-10 12:32N 35°37' E 139°58'0 0.0
2015-May-10 11:32N 35°37' E 139°58'0 0.0
2015-May-10 10:32N 35°37' E 139°58'8 8.6
2015-May-10 09:33N 35°30' E 139°52'1111.2
2015-May-10 08:33N 35°21' E 139°45'1110.7
2015-May-10 07:33N 35°10' E 139°47'1111.0
2015-May-10 06:33N 35°01' E 139°39'4 0.1
2015-May-08 06:33N 35°04' E 139°35'1110.6
2015-May-08 05:34N 35°11' E 139°45'10 9.7
2015-May-08 04:33N 35°21' E 139°42'1010.4
2015-May-08 03:33N 35°29' E 139°50'1111.5
2015-May-08 02:34N 35°34' E 140°03'3 3.0
2015-May-08 01:28N 35°33' E 140°07'0 0.0
2015-May-08 00:31N 35°33' E 140°07'0 0.0
2015-May-07 23:25N 35°33' E 140°07'0 0.0
2015-May-07 22:31N 35°33' E 140°07'0 0.0
2015-May-07 21:31N 35°33' E 140°07'0 0.0
2015-May-07 20:28N 35°33' E 140°07'0 0.0
2015-May-07 19:31N 35°33' E 140°07'0 0.0
2015-May-07 18:31N 35°33' E 140°07'0 0.0
2015-May-07 17:28N 35°33' E 140°07'0 0.0
2015-May-07 16:25N 35°33' E 140°07'0 0.0
2015-May-07 15:31N 35°33' E 140°07'0 0.0
2015-May-07 14:31N 35°33' E 140°07'0 0.0
2015-May-07 13:31N 35°33' E 140°07'0 0.0
2015-May-07 12:13N 35°33' E 140°07'0 0.0
2015-May-07 11:31N 35°33' E 140°07'3 3.0
2015-May-07 10:33N 35°33' E 140°03'1111.4
2015-May-07 09:34N 35°28' E 139°51'9 8.7
2015-May-07 08:32N 35°25' E 139°41'0 0.0
2015-May-07 07:32N 35°25' E 139°41'0 0.0
2015-May-07 06:32N 35°25' E 139°41'  

Dump ship's entire track history